Airfield :
LOGIN :

Register | Disclaimer

   EN    FR    IT 

 










Legend :    VFR   Marginal VFR   IFR   Intensive IFR   Very Intensive IFR
Visi :
Ceiling :
>= 8 km
>= 3000ft
5 to 8 km
1000 to 3000 ft
1500m to 5 km
500 to 1000 ft
800 to 1500m
200 to 500 ft
< 800m
< 200 ft
Symbols :   Thunderstorms  Fog  Heavy snow  Heavy precipitations  Wind > 20 kt
SIGMETs :     Misc.  Thunderstorms  Icing  Turbulence  Mountain Waves  Volcanic Ashes






- Airport Elevation : 302 ft
- IATA code : MAH


LEMH - Menorca

CURRENT METAR :
  • 190630Z 13003KT 070V160 9999 FEW009 24/20 Q1011

EXPIRED METARs :
  • 190600Z 12005KT 080V140 9999 FEW009 SCT015 23/21 Q1011
  • 190530Z 00000KT 9999 FEW009 SCT015 23/21 Q1012
  • 190500Z VRB01KT 9999 FEW012 BKN048 FEW050TCU 22/22 Q1012
  • 190430Z 01003KT 330V060 9999 BKN048 22/22 Q1011
  • 190400Z VRB02KT 9999 BKN048 22/22 Q1011
  • 190330Z AUTO VRB01KT CAVOK 22/// Q1011
  • 190300Z AUTO 25003KT 220V280 9999 FEW002/// 22/// Q1011
  • 190230Z AUTO 24004KT 210V270 9999 FEW002/// SCT003/// BKN023/// 23/23 Q1012
  • 190200Z AUTO 22003KT 9999 SCT003/// SCT004/// BKN012/// 23/23 Q1011

TAF TAF LEMH
Valid from the 19 at 03:00 until the 20 at 03:00 UTC


190200Z 1903/2003 21009KT 9999 FEW020 TX28/1912Z TN21/1905Z
PROB30
TEMPO 1903/1907 2000 BR BKN010
TEMPO 1903/1908 VRB04KT
PROB30
TEMPO 1904/1908 4000 SHRA FEW050TCU
TEMPO 1918/2003 SHRA FEW050TCU



MET'MAP, your aeronautical weather chart ! - Copyright ORBIFLY December 2007 - Disclaimer

ORBIFLY MET'MAP TEAM :

Programming & Development : Alexandra Zaïnal
Original concept : Baudouin d'Aumeries
Technical & hardware support : Manuel Goepfert
Assistance : Marc-Olivier Méhu




SOURCES & CREDITS :

   NOAA